Time;durP1;ratioP1;P1;durP2;ratioP2;P2;SDS_P1;SDS_P2;PMS_P1;PMS_P2;Temp;Humidity;BMP_temperature;BMP_pressure;BME280_temperature;BME280_humidity;BME280_pressure;Samples;Min_cycle;Max_cycle;Signal;HPM_P1;HPM_P2
2021/03/22 00:00:50;;;;;;;14.38;10.85;;;3.10;99.90;;;;;;5057482;28;20083;-70
2021/03/22 00:03:17;;;;;;;14.98;11.38;;;3.10;99.90;;;;;;5057432;28;20025;-70
2021/03/22 00:05:43;;;;;;;15.75;10.27;;;3.00;99.90;;;;;;5056065;28;20168;-70
2021/03/22 00:08:09;;;;;;;;;;;2.90;99.90;;;;;;5058070;28;20029;-70
2021/03/22 00:10:37;;;;;;;14.07;10.20;;;3.00;99.90;;;;;;5056141;28;19904;-70
2021/03/22 00:13:03;;;;;;;14.10;9.98;;;3.00;99.90;;;;;;5057413;28;20021;-70
2021/03/22 00:15:32;;;;;;;18.25;12.00;;;3.20;99.90;;;;;;5057323;28;20072;-70
2021/03/22 00:17:59;;;;;;;11.50;9.20;;;2.80;99.90;;;;;;5057119;28;20025;-70
2021/03/22 00:20:26;;;;;;;11.32;8.63;;;2.90;99.90;;;;;;5057554;28;20060;-70
2021/03/22 00:22:52;;;;;;;12.02;9.75;;;3.00;99.90;;;;;;5057452;28;20029;-70
2021/03/22 00:25:18;;;;;;;;;;;2.80;99.90;;;;;;5057592;28;20058;-70
2021/03/22 00:27:44;;;;;;;15.52;10.52;;;2.70;99.90;;;;;;5057227;28;19911;-70
2021/03/22 00:30:15;;;;;;;15.32;10.27;;;2.70;99.90;;;;;;5057104;28;20024;-70
2021/03/22 00:32:41;;;;;;;19.73;11.77;;;2.80;99.90;;;;;;5056643;28;20107;-70
2021/03/22 00:35:07;;;;;;;;;;;3.00;99.90;;;;;;5053692;28;20108;-70
2021/03/22 00:37:32;;;;;;;15.60;11.10;;;2.70;99.90;;;;;;5056945;28;20315;-70
2021/03/22 00:39:58;;;;;;;;;;;2.90;99.90;;;;;;5057439;28;20021;-70
2021/03/22 00:42:24;;;;;;;17.40;11.30;;;2.90;99.90;;;;;;5057204;28;20396;-70
2021/03/22 00:44:50;;;;;;;;;;;2.80;99.90;;;;;;5057391;28;20547;-70
2021/03/22 00:47:18;;;;;;;14.18;10.15;;;2.90;99.90;;;;;;5056582;28;20342;-70
2021/03/22 00:49:44;;;;;;;13.20;10.38;;;2.50;99.90;;;;;;5056730;28;20108;-70
2021/03/22 00:52:13;;;;;;;;;;;2.80;99.90;;;;;;5057171;28;20052;-70
2021/03/22 00:54:41;;;;;;;15.38;9.82;;;2.40;99.90;;;;;;5056895;28;20369;-70
2021/03/22 00:57:10;;;;;;;14.30;9.63;;;2.70;99.90;;;;;;5056759;28;20025;-70
2021/03/22 00:59:36;;;;;;;13.27;10.05;;;2.60;99.90;;;;;;5056458;28;20096;-70
2021/03/22 01:02:04;;;;;;;15.95;11.32;;;2.30;99.90;;;;;;5056501;28;20022;-70
2021/03/22 01:04:30;;;;;;;13.43;9.70;;;2.50;99.90;;;;;;5056768;28;20021;-70
2021/03/22 01:06:56;;;;;;;;;;;2.50;99.90;;;;;;5057007;28;20395;-70
2021/03/22 01:09:22;;;;;;;20.23;13.00;;;2.50;99.90;;;;;;5056661;28;19905;-70
2021/03/22 01:11:48;;;;;;;27.58;14.80;;;2.20;99.90;;;;;;5056484;28;20493;-70
2021/03/22 01:14:14;;;;;;;17.63;12.70;;;2.40;99.90;;;;;;5056624;28;20029;-70
2021/03/22 01:16:40;;;;;;;;;;;2.70;99.90;;;;;;5056674;28;20033;-70
2021/03/22 01:19:19;;;;;;;17.00;12.20;;;2.90;99.90;;;;;;5056653;28;19911;-70
2021/03/22 01:21:50;;;;;;;16.10;11.98;;;2.70;99.90;;;;;;5054969;28;20025;-70
2021/03/22 01:24:22;;;;;;;14.43;10.95;;;2.50;99.90;;;;;;5056420;28;20029;-70
2021/03/22 01:26:51;;;;;;;21.42;11.20;;;2.50;99.90;;;;;;5056364;28;20036;-70
2021/03/22 01:29:33;;;;;;;13.10;10.50;;;2.60;99.90;;;;;;5056350;28;20017;-70
2021/03/22 01:32:01;;;;;;;17.38;11.38;;;2.40;99.90;;;;;;5045014;28;20017;-70
2021/03/22 01:34:29;;;;;;;15.25;11.10;;;3.30;99.90;;;;;;5052795;28;20030;-70
2021/03/22 01:36:57;;;;;;;14.65;10.60;;;2.30;99.90;;;;;;5056399;28;20021;-70
2021/03/22 01:39:33;;;;;;;14.68;10.38;;;2.30;99.90;;;;;;5056305;28;20048;-70
2021/03/22 01:42:08;;;;;;;15.57;10.27;;;2.30;99.90;;;;;;5056437;28;20025;-70
2021/03/22 01:44:39;;;;;;;18.05;12.35;;;2.30;99.90;;;;;;5056960;28;20025;-70
2021/03/22 01:47:15;;;;;;;19.70;11.55;;;2.30;99.90;;;;;;5060022;28;20037;-70
2021/03/22 01:49:43;;;;;;;;;;;2.80;99.90;;;;;;5060545;28;20025;-70
2021/03/22 01:52:10;;;;;;;14.48;10.68;;;2.30;99.90;;;;;;5058700;28;20272;-70
2021/03/22 01:54:36;;;;;;;15.15;10.35;;;2.10;99.90;;;;;;5060165;28;20615;-70
2021/03/22 01:57:20;;;;;;;;;;;2.10;99.90;;;;;;5060564;28;20439;-70
2021/03/22 01:59:46;;;;;;;14.38;10.75;;;1.90;99.90;;;;;;5059910;28;19905;-70
2021/03/22 02:02:12;;;;;;;;;;;2.50;99.90;;;;;;5060028;28;20025;-70
2021/03/22 02:04:37;;;;;;;14.45;10.10;;;2.30;99.90;;;;;;5060059;28;20007;-70
2021/03/22 02:07:03;;;;;;;;;;;2.40;99.90;;;;;;5058788;28;20021;-70
2021/03/22 02:09:29;;;;;;;20.80;12.77;;;2.00;99.90;;;;;;5059792;28;20368;-70
2021/03/22 02:11:55;;;;;;;14.85;10.55;;;2.30;99.90;;;;;;5059941;28;20048;-70
2021/03/22 02:14:22;;;;;;;21.50;12.65;;;2.20;99.90;;;;;;5059830;28;20025;-70
2021/03/22 02:17:11;;;;;;;20.65;12.25;;;2.60;99.90;;;;;;5059344;28;20048;-70
2021/03/22 02:19:47;;;;;;;21.45;11.18;;;2.00;99.90;;;;;;5059713;28;20021;-70
2021/03/22 02:22:36;;;;;;;20.63;11.98;;;2.30;99.90;;;;;;5059665;28;20078;-70
2021/03/22 02:25:43;;;;;;;21.55;12.98;;;2.40;99.90;;;;;;5059386;28;20029;-70
2021/03/22 02:28:30;;;;;;;24.57;14.73;;;2.50;99.90;;;;;;5059285;28;20128;-70
2021/03/22 02:31:26;;;;;;;21.98;13.52;;;2.80;99.90;;;;;;5059258;28;20044;-70
2021/03/22 02:34:16;;;;;;;24.95;12.95;;;3.00;99.90;;;;;;5058444;28;20104;-70
2021/03/22 02:37:07;;;;;;;20.95;13.43;;;2.60;99.90;;;;;;5059392;28;20063;-70
2021/03/22 02:39:56;;;;;;;23.70;12.77;;;3.40;99.90;;;;;;5059125;28;20031;-70
2021/03/22 02:42:25;;;;;;;19.15;12.70;;;3.80;99.90;;;;;;5058896;28;20504;-70
2021/03/22 02:44:51;;;;;;;21.15;11.15;;;2.90;99.90;;;;;;5059238;28;20028;-70
2021/03/22 02:47:27;;;;;;;;;;;1.70;99.90;;;;;;5059254;28;20028;-70
2021/03/22 02:49:56;;;;;;;18.35;10.15;;;2.80;99.90;;;;;;5057771;28;19904;-70
2021/03/22 02:52:59;;;;;;;20.27;12.32;;;2.60;99.90;;;;;;5058980;28;20009;-70
2021/03/22 02:55:58;;;;;;;24.52;11.85;;;2.70;99.90;;;;;;5057691;28;20021;-70
2021/03/22 02:58:45;;;;;;;19.75;11.38;;;2.90;99.90;;;;;;5057605;28;20029;-70
2021/03/22 03:01:24;;;;;;;19.38;10.90;;;3.00;99.90;;;;;;5057137;28;20101;-70
2021/03/22 03:03:54;;;;;;;21.88;10.82;;;2.90;99.90;;;;;;5057434;28;20078;-70
2021/03/22 03:06:20;;;;;;;31.70;11.85;;;2.80;99.90;;;;;;5057297;28;20029;-70
2021/03/22 03:08:46;;;;;;;;;;;2.90;99.90;;;;;;5058976;28;20017;-70
2021/03/22 03:11:13;;;;;;;26.80;11.77;;;2.80;99.90;;;;;;5058829;28;20289;-70
2021/03/22 03:13:40;;;;;;;22.40;10.18;;;3.20;99.90;;;;;;5057128;28;20025;-70
2021/03/22 03:16:07;;;;;;;26.95;11.27;;;3.10;99.90;;;;;;5057051;28;20029;-70
2021/03/22 03:18:33;;;;;;;25.92;10.88;;;3.10;99.90;;;;;;5058485;28;20033;-70
2021/03/22 03:20:59;;;;;;;;;;;3.00;99.90;;;;;;5058734;28;20017;-70
2021/03/22 03:23:27;;;;;;;18.67;9.93;;;3.00;99.90;;;;;;5058532;28;19911;-70
2021/03/22 03:25:53;;;;;;;19.75;11.18;;;3.10;99.90;;;;;;5058407;28;20029;-70
2021/03/22 03:28:19;;;;;;;;;;;3.20;99.90;;;;;;5058661;28;20071;-70
2021/03/22 03:30:45;;;;;;;28.17;10.38;;;3.20;99.90;;;;;;5058184;28;19927;-71
2021/03/22 03:33:12;;;;;;;;;;;3.30;99.90;;;;;;5058459;28;20030;-70
2021/03/22 03:35:41;;;;;;;18.02;9.65;;;3.40;99.90;;;;;;5057964;28;19911;-70
2021/03/22 03:38:08;;;;;;;16.80;9.65;;;3.50;99.90;;;;;;5058059;28;20028;-70
2021/03/22 03:40:46;;;;;;;15.73;8.68;;;3.50;99.90;;;;;;5058087;28;20115;-70
2021/03/22 03:43:14;;;;;;;24.42;9.90;;;3.30;99.90;;;;;;5058167;28;20108;-70
2021/03/22 03:45:42;;;;;;;26.63;10.30;;;3.10;99.90;;;;;;5056543;28;20029;-70
2021/03/22 03:48:10;;;;;;;21.10;10.60;;;2.90;99.90;;;;;;5057859;28;20063;-70
2021/03/22 03:50:36;;;;;;;18.88;9.55;;;3.10;99.90;;;;;;5057749;28;20020;-70
2021/03/22 03:53:02;;;;;;;12.65;7.20;;;2.90;99.90;;;;;;5058044;28;20051;-68
2021/03/22 03:55:31;;;;;;;12.25;7.53;;;3.10;99.90;;;;;;5057754;28;20060;-71
2021/03/22 03:57:57;;;;;;;21.67;10.30;;;2.70;99.90;;;;;;5058109;28;20021;-70
2021/03/22 04:00:27;;;;;;;;;;;3.80;99.90;;;;;;5058139;28;20094;-71
2021/03/22 04:02:54;;;;;;;15.18;7.80;;;2.30;99.90;;;;;;5056318;28;19916;-70
2021/03/22 04:05:22;;;;;;;17.48;8.77;;;2.50;99.90;;;;;;5057565;28;20025;-70
2021/03/22 04:07:48;;;;;;;11.98;7.72;;;2.60;99.90;;;;;;5057606;28;20048;-70
2021/03/22 04:10:14;;;;;;;;;;;2.70;99.90;;;;;;5057958;28;20016;-71
2021/03/22 04:12:41;;;;;;;16.17;8.37;;;2.60;99.90;;;;;;5056314;28;20369;-71
2021/03/22 04:15:13;;;;;;;16.65;9.23;;;2.60;99.90;;;;;;5057460;28;21247;-70
2021/03/22 04:17:39;;;;;;;14.80;8.32;;;2.20;99.90;;;;;;5057163;28;20043;-71
2021/03/22 04:20:06;;;;;;;11.00;7.57;;;2.50;99.90;;;;;;5055998;28;20104;-70
2021/03/22 04:22:33;;;;;;;14.43;7.35;;;2.20;99.90;;;;;;5057341;28;20031;-70
2021/03/22 04:24:59;;;;;;;14.90;7.57;;;2.10;99.90;;;;;;5057119;28;20025;-70
2021/03/22 04:27:24;;;;;;;;;;;1.80;99.90;;;;;;5057821;28;20078;-71
2021/03/22 04:29:50;;;;;;;9.88;6.53;;;1.30;99.90;;;;;;5057069;28;19905;-70
2021/03/22 04:32:16;;;;;;;;;;;1.70;99.90;;;;;;5057366;28;20025;-70
2021/03/22 04:34:41;;;;;;;9.23;6.38;;;2.10;99.90;;;;;;5053311;28;19905;-71
2021/03/22 04:37:08;;;;;;;14.30;6.50;;;1.70;99.90;;;;;;5055685;28;20025;-70
2021/03/22 04:39:35;;;;;;;14.23;6.70;;;1.70;99.90;;;;;;5056908;28;20078;-70
2021/03/22 04:42:00;;;;;;;13.80;7.50;;;1.60;99.90;;;;;;5057045;28;20033;-70
2021/03/22 04:44:26;;;;;;;;;;;1.70;99.90;;;;;;5057446;28;20539;-71
2021/03/22 04:46:52;;;;;;;16.13;7.75;;;;;;;;;;5056808;28;19915;-70
2021/03/22 04:49:18;;;;;;;9.38;6.68;;;1.70;99.90;;;;;;5056668;28;20021;-70
2021/03/22 04:51:44;;;;;;;;;;;;;;;;;;5057320;28;20048;-70
2021/03/22 04:54:10;;;;;;;10.27;5.93;;;1.30;99.90;;;;;;5056753;28;19923;-70
2021/03/22 04:56:36;;;;;;;;;;;;;;;;;;5057251;28;20468;-70
2021/03/22 04:59:02;;;;;;;9.18;6.00;;;;;;;;;;5056718;28;19995;-70
2021/03/22 05:01:29;;;;;;;6.90;5.53;;;;;;;;;;5054950;28;20588;-70
2021/03/22 05:03:55;;;;;;;9.82;6.38;;;;;;;;;;5055418;28;20025;-71
2021/03/22 05:06:21;;;;;;;9.35;6.47;;;;;;;;;;5056557;28;20036;-70
2021/03/22 05:08:47;;;;;;;9.50;6.75;;;;;;;;;;5055188;28;20111;-71
2021/03/22 05:11:16;;;;;;;11.15;6.10;;;;;;;;;;5056611;28;20040;-70
2021/03/22 05:13:43;;;;;;;13.05;6.15;;;;;;;;;;5056522;28;20017;-71
2021/03/22 05:16:09;;;;;;;8.38;5.85;;;;;;;;;;5056287;28;20374;-70
2021/03/22 05:18:35;;;;;;;7.22;5.90;;;;;;;;;;5056482;28;20033;-70
2021/03/22 05:21:05;;;;;;;11.30;6.68;;;0.80;99.90;;;;;;5055931;28;20564;-70
2021/03/22 05:23:31;;;;;;;7.53;5.40;;;;;;;;;;5056396;28;20493;-70
2021/03/22 05:25:58;;;;;;;11.02;7.15;;;;;;;;;;5056318;28;20029;-71
2021/03/22 05:28:25;;;;;;;8.48;6.22;;;;;;;;;;5056437;28;20080;-70
2021/03/22 05:30:52;;;;;;;8.30;5.72;;;;;;;;;;5054701;28;20025;-70
2021/03/22 05:33:19;;;;;;;8.57;5.35;;;;;;;;;;5056233;28;20466;-71
2021/03/22 05:35:47;;;;;;;13.23;7.30;;;;;;;;;;5052129;28;20033;-71
2021/03/22 05:38:13;;;;;;;24.10;18.77;;;0.70;99.90;;;;;;5055148;28;20021;-71
2021/03/22 05:40:39;;;;;;;;;;;;;;;;;;5056789;28;20439;-71
2021/03/22 05:43:24;;;;;;;9.25;7.90;;;;;;;;;;5056279;28;19966;-71
2021/03/22 05:46:08;;;;;;;7.68;6.88;;;;;;;;;;5054470;28;20036;-71
2021/03/22 05:48:53;;;;;;;13.60;8.95;;;;;;;;;;5056176;28;20104;-71
2021/03/22 05:51:39;;;;;;;12.90;8.50;;;;;;;;;;5054854;28;20052;-71
2021/03/22 05:54:24;;;;;;;10.77;7.82;;;;;;;;;;5056133;28;20055;-73
2021/03/22 05:56:50;;;;;;;13.80;10.75;;;;;;;;;;5056293;28;20559;-71
2021/03/22 05:59:16;;;;;;;;;;;;;;;;;;5055266;28;20536;-71
2021/03/22 06:01:51;;;;;;;8.88;7.40;;;;;;;;;;5055628;28;19924;-71
2021/03/22 06:04:24;;;;;;;9.32;6.88;;;;;;;;;;5056314;28;20029;-71
2021/03/22 06:06:50;;;;;;;13.15;6.75;;;;;;;;;;5055929;28;20037;-70
2021/03/22 06:11:49;;;;;;;8.73;6.90;;;;;;;;;;5094135;27;20422;-70
2021/03/22 06:14:22;;;;;;;8.18;7.32;;;;;;;;;;5093144;28;20101;-70
2021/03/22 06:16:51;;;;;;;10.55;6.97;;;;;;;;;;5092508;28;20029;-70
2021/03/22 06:19:18;;;;;;;7.05;6.38;;;;;;;;;;5092796;28;20028;-70
2021/03/22 06:21:49;;;;;;;12.35;8.35;;;;;;;;;;5092885;28;20035;-70
2021/03/22 06:24:19;;;;;;;9.95;7.03;;;;;;;;;;5082266;28;20104;-70
2021/03/22 06:26:47;;;;;;;8.55;7.32;;;;;;;;;;5072470;28;20090;-70
2021/03/22 06:29:32;;;;;;;9.77;7.70;;;;;;;;;;5073668;28;20142;-70
2021/03/22 06:32:02;;;;;;;9.32;7.05;;;;;;;;;;5061760;28;20536;-70
2021/03/22 06:34:38;;;;;;;12.23;8.68;;;;;;;;;;5068337;28;20029;-70
2021/03/22 06:37:05;;;;;;;9.93;7.63;;;;;;;;;;5072478;28;20036;-70
2021/03/22 06:39:31;;;;;;;12.52;7.35;;;;;;;;;;5072029;28;20922;-70
2021/03/22 06:41:58;;;;;;;14.85;8.27;;;;;;;;;;5073929;28;20129;-70
2021/03/22 06:44:27;;;;;;;9.60;7.10;;;;;;;;;;5073471;28;20102;-70
2021/03/22 06:46:55;;;;;;;9.18;7.53;;;;;;;;;;5073501;28;20031;-70
2021/03/22 06:49:24;;;;;;;10.10;7.20;;;;;;;;;;5073352;28;20086;-70
2021/03/22 06:52:00;;;;;;;18.20;8.48;;;;;;;;;;5073312;28;20553;-70
2021/03/22 06:54:36;;;;;;;12.45;8.23;;;;;;;;;;5073218;28;20080;-70
2021/03/22 06:57:04;;;;;;;12.18;8.48;;;;;;;;;;5073140;28;20087;-70
2021/03/22 06:59:30;;;;;;;13.02;7.78;;;;;;;;;;5071897;28;20078;-70
2021/03/22 07:02:10;;;;;;;12.00;7.25;;;;;;;;;;5072867;28;20358;-70
2021/03/22 07:04:38;;;;;;;10.02;6.15;;;;;;;;;;5073125;28;20481;-70
2021/03/22 07:07:09;;;;;;;17.05;8.35;;;;;;;;;;5072963;28;20079;-70
2021/03/22 07:09:36;;;;;;;7.18;5.25;;;;;;;;;;5072693;28;20036;-70
2021/03/22 07:12:07;;;;;;;13.57;6.88;;;2.60;99.90;;;;;;5071380;28;20024;-70
2021/03/22 07:14:33;;;;;;;11.73;6.32;;;2.80;99.90;;;;;;5071442;28;20055;-70
2021/03/22 07:16:59;;;;;;;;;;;;;;;;;;5072810;28;20025;-70
2021/03/22 07:19:25;;;;;;;10.98;6.05;;;3.80;99.90;;;;;;5071484;28;19911;-70
2021/03/22 07:21:57;;;;;;;14.27;6.75;;;3.10;99.90;;;;;;5066199;28;20028;-70
2021/03/22 07:24:44;;;;;;;8.20;5.60;;;3.50;99.90;;;;;;5058130;28;20035;-70
2021/03/22 07:27:59;;;;;;;10.10;5.57;;;3.80;99.90;;;;;;5059283;28;20037;-70
2021/03/22 07:30:38;;;;;;;9.75;6.13;;;3.80;99.90;;;;;;5037135;28;20029;-69
2021/03/22 07:33:40;;;;;;;10.38;5.68;;;4.20;99.90;;;;;;5056373;28;20510;-70
2021/03/22 07:36:32;;;;;;;9.20;6.43;;;4.70;99.90;;;;;;5055161;28;20017;-70
2021/03/22 07:39:22;;;;;;;14.93;7.20;;;5.20;99.90;;;;;;5057787;28;20431;-70
2021/03/22 07:41:56;;;;;;;14.40;6.45;;;6.00;99.90;;;;;;5059163;28;20025;-70
2021/03/22 07:44:38;;;;;;;12.65;5.85;;;6.20;99.90;;;;;;5059070;28;20044;-69
2021/03/22 07:47:37;;;;;;;19.42;5.55;;;6.70;99.90;;;;;;5058775;28;20551;-70
2021/03/22 07:50:14;;;;;;;10.65;5.05;;;7.20;99.90;;;;;;5049438;28;20041;-69
2021/03/22 07:52:44;;;;;;;14.55;6.03;;;7.70;99.90;;;;;;5058709;28;20017;-70
2021/03/22 07:55:35;;;;;;;11.45;5.65;;;8.10;99.90;;;;;;5057814;28;20029;-70
2021/03/22 07:58:39;;;;;;;14.90;8.32;;;8.60;99.90;;;;;;5057377;28;20370;-70
2021/03/22 08:01:25;;;;;;;14.52;7.85;;;9.00;99.90;;;;;;5058384;28;20120;-70
2021/03/22 08:04:13;;;;;;;17.90;7.40;;;9.50;99.90;;;;;;5058549;28;20031;-70
2021/03/22 08:06:57;;;;;;;11.20;7.32;;;9.90;99.90;;;;;;5058440;28;20039;-70
2021/03/22 08:10:01;;;;;;;12.18;6.65;;;10.20;99.90;;;;;;5057226;28;20453;-70
2021/03/22 08:12:44;;;;;;;14.85;6.38;;;10.50;99.90;;;;;;5058600;28;20140;-70
2021/03/22 08:15:15;;;;;;;11.60;5.85;;;10.70;99.90;;;;;;5056961;28;20029;-71
2021/03/22 08:18:06;;;;;;;16.27;6.45;;;11.00;99.90;;;;;;5056832;28;20119;-71
2021/03/22 08:20:36;;;;;;;13.90;6.28;;;11.60;99.90;;;;;;5058354;28;20017;-71
2021/03/22 08:23:22;;;;;;;11.20;5.72;;;12.00;99.90;;;;;;5058314;28;20028;-70
2021/03/22 08:25:50;;;;;;;14.20;6.57;;;12.70;99.90;;;;;;5056909;28;20025;-71
2021/03/22 08:28:29;;;;;;;8.75;5.70;;;13.20;99.90;;;;;;5058099;28;20048;-71
2021/03/22 08:31:17;;;;;;;13.77;5.10;;;13.60;99.90;;;;;;5057777;28;20029;-70
2021/03/22 08:34:08;;;;;;;13.90;5.32;;;14.00;99.90;;;;;;5057287;28;20622;-71
2021/03/22 08:36:44;;;;;;;14.88;5.68;;;14.50;99.90;;;;;;5056453;28;20025;-70
2021/03/22 08:40:14;;;;;;;14.88;5.03;;;14.50;99.90;;;;;;5056731;28;20036;-71
2021/03/22 08:42:46;;;;;;;13.98;5.10;;;14.20;99.90;;;;;;5019583;28;20077;-70
2021/03/22 08:45:30;;;;;;;12.43;5.18;;;14.20;99.90;;;;;;5016116;28;20072;-71
2021/03/22 08:48:11;;;;;;;13.38;5.13;;;13.90;99.90;;;;;;5035912;28;20069;-70
2021/03/22 08:50:39;;;;;;;10.10;3.60;;;13.70;99.90;;;;;;5056460;28;20028;-70
2021/03/22 08:53:05;;;;;;;18.17;3.90;;;13.70;99.90;;;;;;5057867;28;20124;-70
2021/03/22 08:55:40;;;;;;;16.70;4.55;;;13.70;99.90;;;;;;5057617;28;20056;-70
2021/03/22 08:58:18;;;;;;;13.90;4.78;;;13.70;99.90;;;;;;5057705;28;20021;-70
2021/03/22 09:00:46;;;;;;;18.65;4.55;;;13.80;99.90;;;;;;5055875;28;20083;-70
2021/03/22 09:03:15;;;;;;;9.45;3.75;;;13.90;99.90;;;;;;5056232;28;20025;-70
2021/03/22 09:06:01;;;;;;;10.38;3.58;;;13.90;99.90;;;;;;5055974;28;20025;-70
2021/03/22 09:08:27;;;;;;;11.40;4.10;;;13.90;99.90;;;;;;5056114;28;20029;-70
2021/03/22 09:10:53;;;;;;;14.48;5.45;;;13.80;99.90;;;;;;5055872;28;20040;-70
2021/03/22 09:13:30;;;;;;;13.68;4.10;;;13.70;99.90;;;;;;5057259;28;20437;-70
2021/03/22 09:16:14;;;;;;;14.45;4.35;;;13.50;99.90;;;;;;5056172;28;20021;-70
2021/03/22 09:19:22;;;;;;;11.05;3.97;;;13.80;99.90;;;;;;5057200;28;20021;-70
2021/03/22 09:21:52;;;;;;;;;;;13.70;99.90;;;;;;5040874;28;20136;-70
2021/03/22 09:24:40;;;;;;;16.15;4.85;;;13.60;99.90;;;;;;5057171;28;19908;-70
2021/03/22 09:27:22;;;;;;;16.13;4.35;;;13.80;99.90;;;;;;5055883;28;20053;-70
2021/03/22 09:29:56;;;;;;;16.65;3.83;;;13.50;99.90;;;;;;5056870;28;20029;-70
2021/03/22 09:32:27;;;;;;;19.55;5.10;;;13.40;99.90;;;;;;5055638;28;20035;-70
2021/03/22 09:35:16;;;;;;;12.70;4.57;;;13.00;99.90;;;;;;5053326;28;20123;-70
2021/03/22 09:38:03;;;;;;;15.43;4.00;;;13.20;99.90;;;;;;5055382;28;20025;-69
2021/03/22 09:40:30;;;;;;;14.63;3.90;;;13.40;99.90;;;;;;5055535;28;20033;-70
2021/03/22 09:43:14;;;;;;;15.23;3.47;;;13.40;99.90;;;;;;5056934;28;20489;-70
2021/03/22 09:45:55;;;;;;;15.07;3.70;;;13.70;99.90;;;;;;5055191;28;20067;-70
2021/03/22 09:48:26;;;;;;;13.40;3.97;;;13.80;99.90;;;;;;5055572;28;20056;-70
2021/03/22 09:51:21;;;;;;;14.15;5.22;;;14.20;99.90;;;;;;5056572;28;20028;-70
2021/03/22 09:53:55;;;;;;;13.13;4.60;;;14.90;99.90;;;;;;5050730;28;20094;-70
2021/03/22 09:56:41;;;;;;;13.20;4.78;;;15.20;99.90;;;;;;5057046;28;20431;-70
2021/03/22 09:59:24;;;;;;;17.00;5.50;;;15.70;99.90;;;;;;5056565;28;20059;-70
2021/03/22 10:01:52;;;;;;;14.90;4.40;;;15.70;99.90;;;;;;5054924;28;20577;-70
2021/03/22 10:04:23;;;;;;;15.75;5.00;;;15.90;99.90;;;;;;5056755;28;20073;-70
2021/03/22 10:07:04;;;;;;;16.35;7.55;;;15.90;99.90;;;;;;5056396;28;20530;-70
2021/03/22 10:09:40;;;;;;;15.63;5.35;;;15.60;99.90;;;;;;5056408;28;20550;-70
2021/03/22 10:12:45;;;;;;;13.88;4.80;;;14.60;99.90;;;;;;5056430;28;20400;-70
2021/03/22 10:15:11;;;;;;;15.55;5.15;;;13.80;99.90;;;;;;5056451;28;20017;-70
2021/03/22 10:17:42;;;;;;;19.42;5.10;;;13.20;99.90;;;;;;5056278;28;20021;-70
2021/03/22 10:20:36;;;;;;;11.45;4.68;;;12.90;99.90;;;;;;5056261;28;20033;-70
2021/03/22 10:23:15;;;;;;;20.45;5.07;;;13.10;99.90;;;;;;5056330;28;20025;-70
2021/03/22 10:25:43;;;;;;;21.25;4.88;;;12.90;99.90;;;;;;5056458;28;20167;-70
2021/03/22 10:28:24;;;;;;;12.43;4.93;;;13.00;99.90;;;;;;5056335;28;20025;-70
2021/03/22 10:31:03;;;;;;;14.52;4.70;;;13.00;99.90;;;;;;5055994;28;20021;-70
2021/03/22 10:33:29;;;;;;;13.00;5.57;;;13.10;99.90;;;;;;5056523;28;20029;-70
2021/03/22 10:35:59;;;;;;;17.58;5.32;;;14.50;99.90;;;;;;5052486;28;20021;-70
2021/03/22 10:38:36;;;;;;;12.13;4.47;;;16.00;99.90;;;;;;5056296;28;20112;-70
2021/03/22 10:41:04;;;;;;;15.95;4.88;;;16.20;99.90;;;;;;5055992;28;20032;-70
2021/03/22 10:43:39;;;;;;;16.13;5.82;;;16.20;99.90;;;;;;5056273;28;20091;-70
2021/03/22 10:46:23;;;;;;;17.35;5.00;;;15.80;99.10;;;;;;5055856;28;20021;-70
2021/03/22 10:49:04;;;;;;;12.98;4.90;;;15.10;99.90;;;;;;5056380;28;20025;-70
2021/03/22 10:51:51;;;;;;;14.50;5.43;;;14.70;99.90;;;;;;5056053;28;20029;-70
2021/03/22 10:54:19;;;;;;;;;;;15.10;99.90;;;;;;5056497;28;20052;-70
2021/03/22 10:56:45;;;;;;;15.50;5.10;;;15.10;99.90;;;;;;5055743;28;19904;-70
2021/03/22 10:59:24;;;;;;;17.13;6.13;;;14.80;99.90;;;;;;5059763;28;20055;-70
2021/03/22 11:01:54;;;;;;;16.23;4.97;;;14.30;99.90;;;;;;5059459;28;20370;-70
2021/03/22 11:04:33;;;;;;;14.45;5.72;;;14.20;99.90;;;;;;5059867;28;20071;-70
2021/03/22 11:07:09;;;;;;;14.30;5.57;;;14.30;99.90;;;;;;5059605;28;20032;-70
2021/03/22 11:09:36;;;;;;;18.33;6.68;;;14.60;99.90;;;;;;5058131;28;20024;-70
2021/03/22 11:12:05;;;;;;;14.10;5.55;;;15.50;99.90;;;;;;5059602;28;20031;-70
2021/03/22 11:14:32;;;;;;;11.18;4.05;;;16.80;99.90;;;;;;5059638;28;20032;-70
2021/03/22 11:17:15;;;;;;;13.57;5.38;;;18.10;99.00;;;;;;5057864;28;20120;-71
2021/03/22 11:19:44;;;;;;;13.30;5.63;;;19.60;96.10;;;;;;5058265;28;20416;-70
2021/03/22 11:22:27;;;;;;;13.65;5.68;;;20.80;95.00;;;;;;5059484;28;20029;-71
2021/03/22 11:24:54;;;;;;;12.02;5.78;;;21.70;89.80;;;;;;5059402;28;20439;-71
2021/03/22 11:27:23;;;;;;;10.95;4.90;;;22.20;84.30;;;;;;5059538;28;20048;-70
2021/03/22 11:29:56;;;;;;;12.50;5.20;;;21.90;77.60;;;;;;5059180;28;20440;-71
2021/03/22 11:32:24;;;;;;;11.00;4.75;;;21.30;80.20;;;;;;5059258;28;20017;-71
2021/03/22 11:34:52;;;;;;;14.27;5.65;;;21.50;83.10;;;;;;5055510;28;20379;-71
2021/03/22 11:37:25;;;;;;;10.57;5.18;;;22.20;77.50;;;;;;5071488;28;20545;-71
2021/03/22 11:40:19;;;;;;;14.57;6.00;;;22.70;77.10;;;;;;5079218;28;20032;-71
2021/03/22 11:42:59;;;;;;;10.95;5.07;;;22.70;73.50;;;;;;5079085;28;20633;-71
2021/03/22 11:45:41;;;;;;;7.63;3.58;;;22.30;72.20;;;;;;5079042;28;20108;-71
2021/03/22 11:48:22;;;;;;;10.02;4.95;;;22.60;73.20;;;;;;5078984;28;20530;-71
2021/03/22 11:50:54;;;;;;;11.43;4.20;;;23.40;73.00;;;;;;5078717;28;20028;-71
2021/03/22 11:53:24;;;;;;;10.20;4.00;;;24.00;71.10;;;;;;5079087;28;20032;-71
2021/03/22 11:55:53;;;;;;;11.35;4.72;;;24.40;67.10;;;;;;5078794;28;20029;-71
2021/03/22 11:58:40;;;;;;;11.60;5.10;;;23.00;65.00;;;;;;5078909;28;20017;-71
2021/03/22 12:01:13;;;;;;;;;;;20.20;68.20;;;;;;5078907;28;20442;-71
2021/03/22 12:03:39;;;;;;;11.25;5.20;;;18.70;73.00;;;;;;5078715;28;20053;-70
2021/03/22 12:06:17;;;;;;;8.50;4.68;;;18.60;78.10;;;;;;5078843;28;20020;-71
2021/03/22 12:08:51;;;;;;;12.45;5.28;;;20.00;78.20;;;;;;5078407;28;20029;-71
2021/03/22 12:11:24;;;;;;;9.80;4.90;;;21.50;75.40;;;;;;5078315;28;20055;-71
2021/03/22 12:13:53;;;;;;;13.80;5.53;;;22.80;70.20;;;;;;5078624;28;20393;-71
2021/03/22 12:16:22;;;;;;;12.35;5.10;;;22.40;66.30;;;;;;5078127;28;20021;-71
2021/03/22 12:18:51;;;;;;;10.50;4.28;;;22.40;70.50;;;;;;5077051;28;20037;-71
2021/03/22 12:21:17;;;;;;;12.10;5.85;;;23.20;70.50;;;;;;5078204;28;20052;-71
2021/03/22 12:23:44;;;;;;;10.20;5.32;;;23.60;65.60;;;;;;5071039;28;20032;-71
2021/03/22 12:26:15;;;;;;;15.93;6.50;;;21.70;65.20;;;;;;5056881;28;20493;-71
2021/03/22 12:28:54;;;;;;;12.05;6.07;;;20.00;68.60;;;;;;5057991;28;20025;-71
2021/03/22 12:31:26;;;;;;;8.00;5.05;;;18.90;73.50;;;;;;5057918;28;20104;-71
2021/03/22 12:33:52;;;;;;;13.30;6.88;;;18.70;75.20;;;;;;5057410;28;20055;-70
2021/03/22 12:36:19;;;;;;;11.68;5.68;;;18.50;73.80;;;;;;5055006;28;20183;-70
2021/03/22 12:38:46;;;;;;;11.27;5.93;;;19.20;73.20;;;;;;5058092;28;20100;-70
2021/03/22 12:41:32;;;;;;;9.05;5.60;;;19.50;71.20;;;;;;5057818;28;20029;-71
2021/03/22 12:44:03;;;;;;;10.30;5.57;;;19.40;71.70;;;;;;5057852;28;20447;-71
2021/03/22 12:46:30;;;;;;;9.57;5.38;;;20.30;71.30;;;;;;5057831;28;20039;-71
2021/03/22 12:48:56;;;;;;;9.80;5.15;;;21.40;71.80;;;;;;5057705;28;20028;-71
2021/03/22 12:51:22;;;;;;;12.52;6.38;;;22.20;69.30;;;;;;5058011;28;20017;-71
2021/03/22 12:53:47;;;;;;;12.00;5.15;;;22.50;68.00;;;;;;5057629;28;20060;-71
2021/03/22 12:56:15;;;;;;;14.38;5.15;;;21.40;67.80;;;;;;5057788;28;20025;-71
2021/03/22 12:58:41;;;;;;;12.90;5.05;;;19.80;67.90;;;;;;5057538;28;20048;-71
2021/03/22 13:01:07;;;;;;;13.57;5.43;;;18.40;71.50;;;;;;5057307;28;20513;-71
2021/03/22 13:03:33;;;;;;;14.82;5.30;;;18.60;74.60;;;;;;5056125;28;20025;-71
2021/03/22 13:05:59;;;;;;;8.98;4.75;;;19.40;73.30;;;;;;5057819;28;20522;-71
2021/03/22 13:08:28;;;;;;;10.60;5.43;;;20.50;72.70;;;;;;5056197;28;20029;-71
2021/03/22 13:10:56;;;;;;;17.05;6.43;;;21.10;70.90;;;;;;5057681;28;20075;-71
2021/03/22 13:13:22;;;;;;;8.90;4.53;;;21.60;68.50;;;;;;5057387;28;20021;-71
2021/03/22 13:15:50;;;;;;;11.82;4.90;;;21.70;68.00;;;;;;5057167;28;20033;-71
2021/03/22 13:18:21;;;;;;;13.20;5.30;;;21.00;68.30;;;;;;5057439;28;20032;-71
2021/03/22 13:20:50;;;;;;;14.18;5.43;;;20.10;68.00;;;;;;5056579;28;20067;-71
2021/03/22 13:23:20;;;;;;;10.32;4.88;;;19.60;70.50;;;;;;5056997;28;20020;-71
2021/03/22 13:25:47;;;;;;;8.63;4.65;;;20.10;71.40;;;;;;5055818;28;20560;-71
2021/03/22 13:28:16;;;;;;;9.68;4.45;;;21.10;70.20;;;;;;5057025;28;20025;-71
2021/03/22 13:30:43;;;;;;;8.30;4.38;;;22.10;68.10;;;;;;5056726;28;20029;-71
2021/03/22 13:33:15;;;;;;;11.77;4.80;;;22.80;67.50;;;;;;5056917;28;20021;-72
2021/03/22 13:35:42;;;;;;;14.65;4.53;;;23.50;66.60;;;;;;5052755;28;20060;-72
2021/03/22 13:38:09;;;;;;;8.98;4.93;;;24.30;66.00;;;;;;5055697;28;20493;-71
2021/03/22 13:40:35;;;;;;;9.80;4.45;;;23.70;62.20;;;;;;5056698;28;20117;-72